Archival Weather

NSFA McMurdo Sound

NSFA McMurdo Sound, Antarctica (NZCM)

Report from: Thursday, September 21, 2023 3:35 AM UTC
Current time: Saturday, February 24, 2024 4:23 PM UTC

Current weather – Weather history – Daily summaries
Weather forecast

Temperature-11.3°C (11.7°F)
Dew point-14.7°C (5.5°F)
Winds Calm
Visibility6.2 mi. (10 km)
Clouds Ceiling: Broken clouds 2,900 ft. (884 m)
Broken clouds 3,800 ft. (1,158 m)
Overcast 4,700 ft. (1,433 m)
Altimeter28.58 in.Hg (968 mB)
Precip. events Snow ended 3:35 AM
Relative humidity76 %
Density altitude-5,128 ft. (-1,563 m)
Sea-level pressure106.8 kPa (1068 mB, 31.55 in.Hg)
Remarks Fully automated report
Special weather observation
Automated weather observing station with precipitation discriminator
Flight conditions Marginal Visual Meteorological Conditions
Raw dataSPECI NZCM 210335Z AUTO 00000KT 9999 BKN029 BKN038 OVC047 M11/M15 A2858 RMK AO2 SNE0335 SLP684 T11131147
An error has occurred. This application may no longer respond until reloaded. Reload 🗙